Terminal Aerodrome Forecast
Issued by NWS

Home | Current Version | Previous Version | Text Only | Print | Product List | Glossary On
Versions: 1 2 3 4 5 6 7 8 9 10 11 12
968
FTUS45 KABQ 141143
TAFGUP
TAF
KGUP 141143Z 1412/1512 VRB03KT P6SM FEW250
     FM142000 29011KT P6SM SCT200
     FM150200 VRB03KT P6SM FEW250=

USA.gov is the U.S. government's official web portal to all federal, state and local government web resources and services.